首页
METAR-TAF:

METAR-TAF

机场 :

Lincoln Airport

林肯, 內布拉斯加州, 美国

纬度: 40-49-52N, 经度: 096-45-52W, 海拔: 370米

当前天气观测

该预报发布于1小时和15分钟前的21:54 UTC
风速10节,风向
温度 36°C
湿度 57%
气压 1007 hPa
能見度: 11.3公里
天空无云

METAR: KLNK 152154Z 01010KT 7SM CLR 36/26 A2975 RMK AO2 SLP060 T03560256

时间: 18:09 (23:09 UTC)

预报

该预报发布于5小时和34分钟前的17:35 UTC
预报有效从15日的 18点(UTC)到 16日的 18点(UTC)
风速6节,风向西
能見度: 10公里
散云层高于15000英尺
从 15日的 2100点(UTC)
风速9节,风向
能見度: 10公里
少量云层高于6000英尺
从 16日的 0300点(UTC)
风速7节,风向北转东北
能見度: 10公里
散云层高于10000英尺

TAF: KLNK 151735Z 1518/1618 26006KT P6SM SCT150 FM152100 01009KT P6SM FEW060 FM160300 03007KT P6SM SCT100

超过4000个机场的气象观测和天气预报(METAR&TAF报告)。

可查询的气象台以黄色和红色小点在地图上表示。

将鼠标移到小点上方,可查看气象台名称。

然后点击查看天气观测和预报。

如需切换地图:点击带黑十字的绿色按钮放大地图;点击带横线的绿色按钮缩小地图;或者点击绿色箭头查看邻近地区的地图。


METAR-TAF: